createdAt,value
2022-08-29T00:01:33.234Z,99.90
2022-08-29T00:04:03.518Z,99.90
2022-08-29T00:06:32.332Z,99.90
2022-08-29T00:09:00.262Z,99.90
2022-08-29T00:11:28.391Z,99.90
2022-08-29T00:13:56.229Z,99.90
2022-08-29T00:16:24.087Z,99.90
2022-08-29T00:18:52.322Z,99.90
2022-08-29T00:21:21.470Z,99.90
2022-08-29T00:23:49.310Z,99.90
2022-08-29T00:26:17.249Z,99.90
2022-08-29T00:28:45.095Z,99.90
2022-08-29T00:31:13.055Z,99.90
2022-08-29T00:33:40.958Z,99.90
2022-08-29T00:36:10.332Z,99.90
2022-08-29T00:38:39.588Z,99.90
2022-08-29T00:41:09.729Z,99.90
2022-08-29T00:43:38.638Z,99.90
2022-08-29T00:46:38.789Z,99.90
2022-08-29T00:49:10.157Z,99.90
2022-08-29T00:51:38.478Z,99.90
2022-08-29T00:54:10.792Z,99.90
2022-08-29T00:56:40.379Z,99.90
2022-08-29T00:59:11.989Z,99.90
2022-08-29T01:01:40.079Z,99.90
2022-08-29T01:04:09.882Z,99.90
2022-08-29T01:06:44.408Z,99.90
2022-08-29T01:09:14.021Z,99.90
2022-08-29T01:11:59.452Z,99.90
2022-08-29T01:14:28.898Z,99.90
2022-08-29T01:17:00.028Z,99.90
2022-08-29T01:19:42.570Z,99.90
2022-08-29T01:22:35.219Z,99.90
2022-08-29T01:25:07.756Z,99.90
2022-08-29T01:27:39.455Z,99.90
2022-08-29T01:30:09.148Z,99.90
2022-08-29T01:32:37.061Z,99.90
2022-08-29T01:35:05.570Z,99.90
2022-08-29T01:37:35.031Z,99.90
2022-08-29T01:40:05.568Z,99.90
2022-08-29T01:42:36.544Z,99.90
2022-08-29T01:45:09.641Z,99.90
2022-08-29T01:47:40.156Z,99.90
2022-08-29T01:50:10.969Z,99.90
2022-08-29T01:52:38.848Z,99.90
2022-08-29T01:55:08.974Z,99.90
2022-08-29T01:57:38.294Z,99.90
2022-08-29T02:00:08.275Z,99.90
2022-08-29T02:02:36.846Z,99.90
2022-08-29T02:05:06.174Z,99.90
2022-08-29T02:07:34.094Z,99.90
2022-08-29T02:10:01.908Z,99.90
2022-08-29T02:12:31.565Z,99.90
2022-08-29T02:14:59.878Z,99.90
2022-08-29T02:17:28.073Z,99.90
2022-08-29T02:19:55.922Z,99.90
2022-08-29T02:22:23.762Z,99.90
2022-08-29T02:24:51.581Z,99.90
2022-08-29T02:27:19.424Z,99.90
2022-08-29T02:29:48.624Z,99.90
2022-08-29T02:32:17.677Z,99.90
2022-08-29T02:34:47.826Z,99.90
2022-08-29T02:37:16.941Z,99.90
2022-08-29T02:39:44.867Z,99.90
2022-08-29T02:42:12.722Z,99.90
2022-08-29T02:44:40.535Z,99.90
2022-08-29T02:47:10.477Z,99.90
2022-08-29T02:49:38.876Z,99.90
2022-08-29T02:52:08.542Z,99.90
2022-08-29T02:54:36.530Z,99.90
2022-08-29T02:57:04.893Z,99.90
2022-08-29T02:59:32.818Z,99.90
2022-08-29T03:02:00.720Z,99.90
2022-08-29T03:04:29.974Z,99.90
2022-08-29T03:06:57.886Z,99.90
2022-08-29T03:09:25.726Z,99.90
2022-08-29T03:11:56.112Z,99.90
2022-08-29T03:14:24.210Z,99.90
2022-08-29T03:16:52.189Z,99.90
2022-08-29T03:19:20.373Z,99.90
2022-08-29T03:21:49.567Z,99.90
2022-08-29T03:24:17.406Z,99.90
2022-08-29T03:26:56.651Z,99.90
2022-08-29T03:29:25.591Z,99.90
2022-08-29T03:31:53.966Z,99.90
2022-08-29T03:34:21.802Z,99.90
2022-08-29T03:36:50.997Z,99.90
2022-08-29T03:39:18.897Z,99.90
2022-08-29T03:41:46.807Z,99.90
2022-08-29T03:44:15.263Z,99.90
2022-08-29T03:46:43.214Z,99.90
2022-08-29T03:49:11.848Z,99.90
2022-08-29T03:51:40.681Z,99.90
2022-08-29T03:54:10.203Z,99.90
2022-08-29T03:56:38.169Z,99.90
2022-08-29T03:59:06.037Z,99.90
2022-08-29T04:01:33.984Z,99.90
2022-08-29T04:04:01.918Z,99.90
2022-08-29T04:06:29.766Z,99.90
2022-08-29T04:08:59.008Z,99.90
2022-08-29T04:11:29.817Z,99.90
2022-08-29T04:13:57.632Z,99.90
2022-08-29T04:16:30.366Z,99.90
2022-08-29T04:18:59.433Z,99.90
2022-08-29T04:21:27.539Z,99.90
2022-08-29T04:23:55.505Z,99.90
2022-08-29T04:26:38.963Z,99.90
2022-08-29T04:29:09.571Z,99.90
2022-08-29T04:31:38.706Z,99.90
2022-08-29T04:34:08.043Z,99.90
2022-08-29T04:36:36.448Z,99.90
2022-08-29T04:39:06.002Z,99.90
2022-08-29T04:41:34.398Z,99.90
2022-08-29T04:44:02.822Z,99.90
2022-08-29T04:46:32.064Z,99.90
2022-08-29T04:49:03.965Z,99.90
2022-08-29T04:51:32.380Z,99.90
2022-08-29T04:54:00.256Z,99.90
2022-08-29T04:56:28.219Z,99.90
2022-08-29T04:58:57.671Z,99.90
2022-08-29T05:01:27.343Z,99.90
2022-08-29T05:03:57.988Z,99.90
2022-08-29T05:06:26.282Z,99.90
2022-08-29T05:08:59.823Z,99.90
2022-08-29T05:11:29.915Z,99.90
2022-08-29T05:13:58.664Z,99.90
2022-08-29T05:16:26.510Z,99.90
2022-08-29T05:18:56.274Z,99.90
2022-08-29T05:21:27.276Z,99.90
2022-08-29T05:23:56.404Z,99.90
2022-08-29T05:26:25.382Z,99.90
2022-08-29T05:28:54.035Z,99.90
2022-08-29T05:31:22.620Z,99.90
2022-08-29T05:33:51.495Z,99.90
2022-08-29T05:36:20.677Z,99.90
2022-08-29T05:38:49.024Z,99.90
2022-08-29T05:41:18.702Z,99.90
2022-08-29T05:43:47.419Z,99.90
2022-08-29T05:46:15.358Z,99.90
2022-08-29T05:48:48.454Z,99.90
2022-08-29T05:51:18.728Z,99.90
2022-08-29T05:53:48.638Z,99.90
2022-08-29T05:56:23.491Z,99.90
2022-08-29T05:58:51.405Z,99.90
2022-08-29T06:01:25.750Z,99.90
2022-08-29T06:03:54.175Z,99.90
2022-08-29T06:06:27.564Z,99.90
2022-08-29T06:08:58.091Z,99.90
2022-08-29T06:11:28.576Z,99.90
2022-08-29T06:13:56.608Z,99.90
2022-08-29T06:16:26.550Z,99.90
2022-08-29T06:18:54.864Z,99.90
2022-08-29T06:21:23.164Z,99.90
2022-08-29T06:23:51.169Z,99.90
2022-08-29T06:26:20.808Z,99.90
2022-08-29T06:28:48.907Z,99.90
2022-08-29T06:31:20.867Z,99.90
2022-08-29T06:33:51.581Z,99.90
2022-08-29T06:36:19.957Z,99.90
2022-08-29T06:38:48.253Z,99.90
2022-08-29T06:41:17.893Z,99.90
2022-08-29T06:43:47.053Z,99.90
2022-08-29T06:46:22.245Z,99.90
2022-08-29T06:48:50.492Z,99.90
2022-08-29T06:51:18.478Z,99.90
2022-08-29T06:53:46.333Z,99.90
2022-08-29T06:56:15.842Z,99.90
2022-08-29T06:58:44.238Z,99.90
2022-08-29T07:01:15.827Z,99.90
2022-08-29T07:03:43.964Z,99.90
2022-08-29T07:06:12.320Z,99.90
2022-08-29T07:08:54.819Z,99.90
2022-08-29T07:11:24.670Z,99.90
2022-08-29T07:13:52.581Z,99.90
2022-08-29T07:16:22.912Z,99.90
2022-08-29T07:18:51.120Z,99.90
2022-08-29T07:21:21.533Z,99.90
2022-08-29T07:23:49.804Z,99.90
2022-08-29T07:26:19.874Z,99.90
2022-08-29T07:28:49.104Z,99.90
2022-08-29T07:31:17.563Z,99.90
2022-08-29T07:33:46.778Z,99.90
2022-08-29T07:36:14.653Z,99.90
2022-08-29T07:38:42.786Z,99.90
2022-08-29T07:41:14.278Z,99.90
2022-08-29T07:43:43.606Z,99.90
2022-08-29T07:46:14.673Z,99.90
2022-08-29T07:48:43.302Z,99.90
2022-08-29T07:51:14.990Z,99.90
2022-08-29T07:53:43.551Z,99.90
2022-08-29T07:56:15.750Z,99.90
2022-08-29T07:58:43.825Z,99.90
2022-08-29T08:01:20.725Z,99.90
2022-08-29T08:03:49.987Z,99.90
2022-08-29T08:06:20.751Z,99.90
2022-08-29T08:08:49.509Z,99.90
2022-08-29T08:11:17.847Z,99.90
2022-08-29T08:13:45.754Z,99.90
2022-08-29T08:16:16.324Z,99.90
2022-08-29T08:18:45.445Z,99.90
2022-08-29T08:21:13.845Z,99.90
2022-08-29T08:23:43.560Z,99.90
2022-08-29T08:26:13.109Z,99.90
2022-08-29T08:28:43.005Z,99.90
2022-08-29T08:31:14.245Z,99.90
2022-08-29T08:33:42.725Z,99.90
2022-08-29T08:36:15.424Z,99.90
2022-08-29T08:38:45.399Z,99.90
2022-08-29T08:41:36.170Z,99.90
2022-08-29T08:44:07.162Z,99.90
2022-08-29T08:46:38.960Z,99.90
2022-08-29T08:49:17.085Z,99.90
2022-08-29T08:51:49.014Z,99.90
2022-08-29T08:54:24.552Z,99.90
2022-08-29T08:57:01.820Z,99.90
2022-08-29T08:59:39.396Z,99.90
2022-08-29T09:02:14.687Z,99.90
2022-08-29T09:04:59.792Z,99.90
2022-08-29T09:07:45.584Z,99.90
2022-08-29T09:10:33.859Z,99.90
2022-08-29T09:13:11.408Z,99.90
2022-08-29T09:15:42.136Z,99.90
2022-08-29T09:18:13.789Z,99.90
2022-08-29T09:20:43.344Z,99.90
2022-08-29T09:23:19.970Z,99.90
2022-08-29T09:25:49.478Z,99.90
2022-08-29T09:28:17.370Z,99.90
2022-08-29T09:31:06.581Z,99.90
2022-08-29T09:33:43.866Z,99.90
2022-08-29T09:36:14.702Z,99.90
2022-08-29T09:38:42.601Z,99.90
2022-08-29T09:41:11.805Z,99.90
2022-08-29T09:43:50.352Z,99.90
2022-08-29T09:46:23.309Z,99.90
2022-08-29T09:48:53.509Z,99.90
2022-08-29T09:51:25.569Z,99.90
2022-08-29T09:53:53.939Z,99.90
2022-08-29T09:56:27.938Z,99.90
2022-08-29T09:59:02.927Z,99.90
2022-08-29T10:01:36.584Z,99.90
2022-08-29T10:04:06.651Z,99.90
2022-08-29T10:06:44.189Z,99.90
2022-08-29T10:09:27.995Z,99.90
2022-08-29T10:12:01.166Z,99.90
2022-08-29T10:14:34.554Z,99.90
2022-08-29T10:17:20.684Z,99.90
2022-08-29T10:19:49.092Z,99.90
2022-08-29T10:22:27.901Z,99.90
2022-08-29T10:25:00.445Z,99.90
2022-08-29T10:27:37.575Z,99.90
2022-08-29T10:30:09.676Z,99.90
2022-08-29T10:33:09.779Z,99.90
2022-08-29T10:35:41.818Z,99.90
2022-08-29T10:38:13.214Z,99.90
2022-08-29T10:40:43.961Z,99.90
2022-08-29T10:43:35.037Z,99.90
2022-08-29T10:46:12.813Z,99.90
2022-08-29T10:48:48.974Z,99.90
2022-08-29T10:51:23.666Z,99.90
2022-08-29T10:53:58.398Z,99.90
2022-08-29T10:56:31.759Z,99.90
2022-08-29T10:59:12.251Z,99.90
2022-08-29T11:01:43.365Z,99.90
2022-08-29T11:04:19.527Z,99.90
2022-08-29T11:06:54.273Z,99.90
2022-08-29T11:09:26.559Z,99.90
2022-08-29T11:12:05.246Z,99.90
2022-08-29T11:14:39.082Z,99.90
2022-08-29T11:17:10.961Z,99.90
2022-08-29T11:19:51.192Z,99.90
2022-08-29T11:22:23.173Z,99.90
2022-08-29T11:25:06.801Z,99.90
2022-08-29T11:27:44.978Z,99.90
2022-08-29T11:30:20.080Z,99.90
2022-08-29T11:32:57.365Z,99.90
2022-08-29T11:35:30.002Z,99.90
2022-08-29T11:38:31.179Z,99.90
2022-08-29T11:41:29.380Z,99.90
2022-08-29T11:44:08.827Z,99.90
2022-08-29T11:46:44.270Z,99.90
2022-08-29T11:49:36.120Z,99.90
2022-08-29T11:52:34.295Z,99.90
2022-08-29T11:55:25.328Z,99.90
2022-08-29T11:58:11.853Z,99.90
2022-08-29T12:00:51.138Z,99.90
2022-08-29T12:03:54.828Z,99.90
2022-08-29T12:06:48.836Z,99.90
2022-08-29T12:09:37.925Z,99.90
2022-08-29T12:12:20.626Z,99.90
2022-08-29T12:14:50.340Z,99.90
2022-08-29T12:18:05.657Z,99.90
2022-08-29T12:20:41.691Z,99.90
2022-08-29T12:23:20.290Z,99.90
2022-08-29T12:26:09.442Z,99.90
2022-08-29T12:28:45.544Z,99.90
2022-08-29T12:31:31.966Z,99.90
2022-08-29T12:34:23.333Z,99.90
2022-08-29T12:37:25.158Z,99.90
2022-08-29T12:40:30.918Z,99.90
2022-08-29T12:43:20.771Z,99.90
2022-08-29T12:45:50.317Z,99.90
2022-08-29T12:48:23.751Z,99.90
2022-08-29T12:50:52.494Z,99.90
2022-08-29T12:53:24.222Z,99.90
2022-08-29T12:55:55.954Z,99.90
2022-08-29T12:58:40.723Z,99.90
2022-08-29T13:01:20.970Z,99.90
2022-08-29T13:03:57.512Z,99.90
2022-08-29T13:06:25.413Z,99.90
2022-08-29T13:08:53.351Z,99.90
2022-08-29T13:11:25.886Z,99.90
2022-08-29T13:14:06.442Z,99.90
2022-08-29T13:16:34.804Z,99.90
2022-08-29T13:19:17.983Z,99.90
2022-08-29T13:21:45.888Z,99.90
2022-08-29T13:24:19.259Z,99.90
2022-08-29T13:27:05.662Z,99.90
2022-08-29T13:29:38.303Z,99.90
2022-08-29T13:32:23.985Z,99.90
2022-08-29T13:35:04.926Z,99.90
2022-08-29T13:37:36.325Z,99.90
2022-08-29T13:40:31.366Z,99.90
2022-08-29T13:43:01.916Z,99.90
2022-08-29T13:45:30.152Z,99.90
2022-08-29T13:48:11.856Z,99.90
2022-08-29T13:50:39.918Z,99.90
2022-08-29T13:53:07.944Z,99.90
2022-08-29T13:55:35.881Z,99.90
2022-08-29T13:58:05.489Z,99.90
2022-08-29T14:00:34.976Z,99.90
2022-08-29T14:03:06.497Z,99.90
2022-08-29T14:05:35.207Z,99.90
2022-08-29T14:08:03.649Z,99.90
2022-08-29T14:10:31.460Z,99.90
2022-08-29T14:12:59.267Z,99.90
2022-08-29T14:15:28.479Z,99.90
2022-08-29T14:17:56.586Z,99.90
2022-08-29T14:20:24.716Z,99.90
2022-08-29T14:22:52.554Z,99.90
2022-08-29T14:25:21.136Z,99.90
2022-08-29T14:27:49.871Z,99.70
2022-08-29T14:30:20.841Z,98.90
2022-08-29T14:32:50.029Z,97.60
2022-08-29T14:35:26.434Z,96.50
2022-08-29T14:37:59.604Z,96.00
2022-08-29T14:40:29.042Z,96.90
2022-08-29T14:42:57.469Z,96.70
2022-08-29T14:45:25.310Z,96.30
2022-08-29T14:47:54.694Z,96.20
2022-08-29T14:50:23.618Z,95.70
2022-08-29T14:52:51.513Z,94.60
2022-08-29T14:55:19.898Z,94.30
2022-08-29T14:57:48.018Z,93.30
2022-08-29T15:00:19.929Z,92.60
2022-08-29T15:02:48.116Z,92.30
2022-08-29T15:05:17.531Z,91.80
2022-08-29T15:07:45.503Z,91.00
2022-08-29T15:10:15.209Z,90.20
2022-08-29T15:12:43.106Z,89.40
2022-08-29T15:15:11.531Z,88.90
2022-08-29T15:17:40.450Z,88.40
2022-08-29T15:22:58.482Z,87.00
2022-08-29T15:25:26.633Z,86.70
2022-08-29T15:27:54.458Z,85.70
2022-08-29T15:30:24.867Z,85.30
2022-08-29T15:32:53.389Z,85.90
2022-08-29T15:35:21.502Z,86.10
2022-08-29T15:37:49.398Z,86.20
2022-08-29T15:40:19.409Z,86.50
2022-08-29T15:42:47.446Z,85.70
2022-08-29T15:45:15.598Z,86.20
2022-08-29T15:47:46.144Z,86.20
2022-08-29T15:50:15.710Z,85.40
2022-08-29T15:52:43.663Z,85.50
2022-08-29T15:55:12.706Z,84.30
2022-08-29T15:57:51.809Z,85.50
2022-08-29T16:00:29.806Z,85.20
2022-08-29T16:03:03.138Z,85.30
2022-08-29T16:05:31.903Z,86.00
2022-08-29T16:08:00.028Z,86.80
2022-08-29T16:10:28.456Z,85.20
2022-08-29T16:12:57.692Z,85.60
2022-08-29T16:15:25.761Z,87.00
2022-08-29T16:17:53.609Z,87.10
2022-08-29T16:20:21.637Z,86.50
2022-08-29T16:22:49.505Z,87.70
2022-08-29T16:25:17.787Z,88.40
2022-08-29T16:27:45.817Z,89.10
2022-08-29T16:30:16.201Z,89.00
2022-08-29T16:32:44.079Z,87.40
2022-08-29T16:35:12.736Z,86.40
2022-08-29T16:37:40.573Z,86.40
2022-08-29T16:40:09.840Z,87.00
2022-08-29T16:42:39.238Z,87.40
2022-08-29T16:45:08.428Z,87.70
2022-08-29T16:47:37.880Z,88.40
2022-08-29T16:50:08.978Z,89.00
2022-08-29T16:52:57.366Z,89.00
2022-08-29T16:55:25.825Z,89.30
2022-08-29T16:58:12.921Z,89.40
2022-08-29T17:00:41.146Z,89.20
2022-08-29T17:03:23.553Z,89.10
2022-08-29T17:05:59.557Z,90.00
2022-08-29T17:08:47.459Z,89.20
2022-08-29T17:11:18.726Z,89.60
2022-08-29T17:13:46.720Z,90.10
2022-08-29T17:16:17.416Z,90.00
2022-08-29T17:18:47.040Z,90.10
2022-08-29T17:21:15.724Z,90.20
2022-08-29T17:23:45.845Z,90.80
2022-08-29T17:26:17.533Z,90.80
2022-08-29T17:28:47.059Z,91.20
2022-08-29T17:31:15.962Z,91.30
2022-08-29T17:33:46.446Z,91.50
2022-08-29T17:36:19.130Z,91.80
2022-08-29T17:38:51.443Z,92.20
2022-08-29T17:41:22.080Z,92.50
2022-08-29T17:43:51.193Z,93.00
2022-08-29T17:46:21.802Z,93.40
2022-08-29T17:48:49.770Z,94.00
2022-08-29T17:51:18.979Z,94.50
2022-08-29T17:53:47.758Z,94.90
2022-08-29T17:56:17.683Z,95.00
2022-08-29T17:58:45.852Z,95.20
2022-08-29T18:01:16.566Z,95.50
2022-08-29T18:03:45.519Z,95.80
2022-08-29T18:06:14.789Z,96.00
2022-08-29T18:08:48.443Z,96.30
2022-08-29T18:11:17.448Z,96.60
2022-08-29T18:13:45.869Z,97.00
2022-08-29T18:16:14.717Z,97.20
2022-08-29T18:18:44.282Z,97.30
2022-08-29T18:21:16.420Z,97.50
2022-08-29T18:23:47.440Z,97.80
2022-08-29T18:26:15.379Z,97.90
2022-08-29T18:28:43.227Z,98.20
2022-08-29T18:31:12.592Z,98.50
2022-08-29T18:34:00.204Z,98.60
2022-08-29T18:36:29.096Z,98.90
2022-08-29T18:38:58.305Z,99.10
2022-08-29T18:41:26.787Z,99.30
2022-08-29T18:43:54.681Z,99.70
2022-08-29T18:46:23.186Z,99.90
2022-08-29T18:48:51.490Z,99.90
2022-08-29T18:51:19.782Z,99.90
2022-08-29T18:53:47.989Z,99.90
2022-08-29T18:56:17.393Z,99.90
2022-08-29T18:58:45.312Z,99.90
2022-08-29T19:01:15.373Z,99.90
2022-08-29T19:03:54.966Z,99.90
2022-08-29T19:06:25.797Z,99.90
2022-08-29T19:08:54.421Z,99.90
2022-08-29T19:11:24.000Z,99.90
2022-08-29T19:13:52.833Z,99.90
2022-08-29T19:16:22.672Z,99.90
2022-08-29T19:19:13.235Z,99.90
2022-08-29T19:25:20.579Z,99.90
2022-08-29T19:27:49.854Z,99.90
2022-08-29T19:30:19.414Z,99.90
2022-08-29T19:32:47.424Z,99.90
2022-08-29T19:35:15.431Z,99.90
2022-08-29T19:37:44.950Z,99.90
2022-08-29T19:40:17.460Z,99.90
2022-08-29T19:42:46.402Z,99.90
2022-08-29T19:45:19.291Z,99.90
2022-08-29T19:47:49.309Z,99.90
2022-08-29T19:50:19.293Z,99.90
2022-08-29T19:52:47.897Z,99.90
2022-08-29T19:55:18.742Z,99.90
2022-08-29T19:57:47.536Z,99.90
2022-08-29T20:00:19.511Z,99.90
2022-08-29T20:02:47.514Z,99.90
2022-08-29T20:05:15.584Z,99.90
2022-08-29T20:07:45.040Z,99.90
2022-08-29T20:10:16.186Z,99.90
2022-08-29T20:12:44.045Z,99.90
2022-08-29T20:15:13.054Z,99.90
2022-08-29T20:17:43.125Z,99.90
2022-08-29T20:20:14.808Z,99.90
2022-08-29T20:22:42.650Z,99.90
2022-08-29T20:25:11.770Z,99.90
2022-08-29T20:27:40.629Z,99.90
2022-08-29T20:30:11.599Z,99.90
2022-08-29T20:32:39.680Z,99.90
2022-08-29T20:35:09.283Z,99.90
2022-08-29T20:37:36.405Z,99.90
2022-08-29T20:40:05.981Z,99.90
2022-08-29T20:42:34.415Z,99.90
2022-08-29T20:45:02.294Z,99.90
2022-08-29T20:47:30.217Z,99.90
2022-08-29T20:49:58.059Z,99.90
2022-08-29T20:52:27.320Z,99.90
2022-08-29T20:54:55.205Z,99.90
2022-08-29T20:57:23.137Z,99.90
2022-08-29T20:59:50.963Z,99.90
2022-08-29T21:02:18.871Z,99.90
2022-08-29T21:05:04.509Z,99.90
2022-08-29T21:07:33.911Z,99.90
2022-08-29T21:10:01.873Z,99.90
2022-08-29T21:12:30.335Z,99.90
2022-08-29T21:14:58.183Z,99.90
2022-08-29T21:17:25.979Z,99.90
2022-08-29T21:19:54.541Z,99.90
2022-08-29T21:22:25.035Z,99.90
2022-08-29T21:24:55.322Z,99.90
2022-08-29T21:27:23.379Z,99.90
2022-08-29T21:29:51.224Z,99.90
2022-08-29T21:32:22.340Z,99.90
2022-08-29T21:34:50.388Z,99.90
2022-08-29T21:37:18.233Z,99.90
2022-08-29T21:39:47.722Z,99.90
2022-08-29T21:42:17.435Z,99.90
2022-08-29T21:44:45.276Z,99.90
2022-08-29T21:47:17.631Z,99.90
2022-08-29T21:49:48.353Z,99.90
2022-08-29T21:52:16.361Z,99.90
2022-08-29T21:54:44.201Z,99.90
2022-08-29T21:57:17.277Z,99.90
2022-08-29T21:59:46.831Z,99.90
2022-08-29T22:02:17.398Z,99.90
2022-08-29T22:04:45.410Z,99.90
2022-08-29T22:07:13.402Z,99.90
2022-08-29T22:09:41.446Z,99.90
2022-08-29T22:12:09.719Z,99.90
2022-08-29T22:14:54.894Z,99.90
2022-08-29T22:17:24.131Z,99.90
2022-08-29T22:19:52.050Z,99.90
2022-08-29T22:22:20.915Z,99.90
2022-08-29T22:24:49.176Z,99.90
2022-08-29T22:27:16.960Z,99.90
2022-08-29T22:29:44.939Z,99.90
2022-08-29T22:32:13.946Z,99.90
2022-08-29T22:34:43.170Z,99.90
2022-08-29T22:37:10.974Z,99.90
2022-08-29T22:39:38.805Z,99.90
2022-08-29T22:42:06.824Z,99.90
2022-08-29T22:47:22.777Z,99.90
2022-08-29T22:49:52.186Z,99.90
2022-08-29T22:52:20.710Z,99.90
2022-08-29T22:54:48.660Z,99.90
2022-08-29T22:57:19.071Z,99.90
2022-08-29T22:59:49.517Z,99.90
2022-08-29T23:02:18.493Z,99.90
2022-08-29T23:04:46.959Z,99.90
2022-08-29T23:07:16.250Z,99.90
2022-08-29T23:09:45.336Z,99.90
2022-08-29T23:12:14.604Z,99.90
2022-08-29T23:14:46.518Z,99.90
2022-08-29T23:17:16.059Z,99.90
2022-08-29T23:19:44.831Z,99.90
2022-08-29T23:22:14.465Z,99.90
2022-08-29T23:24:51.595Z,99.90
2022-08-29T23:27:25.844Z,99.90
2022-08-29T23:29:54.005Z,99.90
2022-08-29T23:32:21.838Z,99.90
2022-08-29T23:34:49.733Z,99.90
2022-08-29T23:37:17.545Z,99.90
2022-08-29T23:39:46.919Z,99.90
2022-08-29T23:42:15.338Z,99.90
2022-08-29T23:44:43.169Z,99.90
2022-08-29T23:47:10.979Z,99.90
2022-08-29T23:49:38.830Z,99.90
2022-08-29T23:52:06.787Z,99.90
2022-08-29T23:54:36.738Z,99.90
2022-08-29T23:57:06.085Z,99.90
2022-08-29T23:59:51.748Z,99.90
